createdAt,value
2022-09-11T00:02:26.205Z,19.80
2022-09-11T00:05:12.626Z,19.74
2022-09-11T00:07:59.560Z,19.64
2022-09-11T00:10:48.610Z,19.62
2022-09-11T00:13:29.100Z,19.51
2022-09-11T00:16:19.609Z,19.40
2022-09-11T00:19:08.587Z,19.38
2022-09-11T00:21:57.592Z,19.36
2022-09-11T00:24:37.949Z,19.35
2022-09-11T00:27:24.566Z,19.33
2022-09-11T00:30:05.289Z,19.34
2022-09-11T00:32:51.594Z,19.32
2022-09-11T00:35:31.923Z,19.30
2022-09-11T00:38:18.588Z,19.32
2022-09-11T00:41:00.926Z,19.33
2022-09-11T00:44:25.535Z,19.27
2022-09-11T00:47:16.547Z,19.25
2022-09-11T00:50:00.633Z,19.28
2022-09-11T00:52:56.568Z,19.30
2022-09-11T00:55:40.646Z,19.27
2022-09-11T00:58:31.562Z,19.29
2022-09-11T01:01:14.637Z,19.25
2022-09-11T01:04:02.564Z,19.28
2022-09-11T01:06:42.680Z,19.20
2022-09-11T01:09:32.551Z,19.25
2022-09-11T01:12:19.626Z,19.19
2022-09-11T01:15:18.545Z,19.10
2022-09-11T01:18:24.651Z,19.12
2022-09-11T01:21:34.487Z,19.04
2022-09-11T01:24:43.533Z,19.06
2022-09-11T01:27:54.511Z,19.11
2022-09-11T01:30:51.549Z,19.10
2022-09-11T01:33:56.620Z,19.05
2022-09-11T01:36:47.497Z,19.05
2022-09-11T01:39:33.754Z,19.07
2022-09-11T01:42:27.500Z,19.04
2022-09-11T01:45:17.449Z,19.03
2022-09-11T01:48:06.492Z,19.04
2022-09-11T01:50:58.493Z,19.06
2022-09-11T01:53:45.877Z,19.12
2022-09-11T01:56:51.468Z,19.14
2022-09-11T01:59:37.566Z,19.22
2022-09-11T02:02:27.469Z,19.21
2022-09-11T02:05:20.560Z,19.24
2022-09-11T02:08:36.502Z,19.20
2022-09-11T02:11:24.445Z,19.16
2022-09-11T02:14:30.585Z,19.15
2022-09-11T02:17:47.476Z,19.22
2022-09-11T02:20:34.404Z,19.22
2022-09-11T02:23:24.469Z,19.22
2022-09-11T02:26:04.694Z,19.23
2022-09-11T02:28:51.458Z,19.27
2022-09-11T02:31:32.561Z,19.21
2022-09-11T02:34:21.410Z,19.31
2022-09-11T02:37:34.058Z,19.33
2022-09-11T02:40:38.435Z,19.33
2022-09-11T02:43:46.442Z,19.31
2022-09-11T02:46:50.004Z,19.26
2022-09-11T02:50:10.423Z,19.23
2022-09-11T02:53:09.439Z,19.20
2022-09-11T02:56:12.419Z,19.22
2022-09-11T02:58:57.399Z,19.20
2022-09-11T03:02:06.445Z,19.17
2022-09-11T03:04:53.403Z,19.14
2022-09-11T03:25:54.206Z,18.59
2022-09-11T03:28:34.628Z,18.75
2022-09-11T03:31:24.198Z,18.84
2022-09-11T03:34:13.187Z,18.95
2022-09-11T03:36:53.305Z,19.02
2022-09-11T03:39:40.218Z,19.13
2022-09-11T03:42:20.318Z,19.14
2022-09-11T03:45:07.177Z,19.14
2022-09-11T03:47:55.209Z,19.17
2022-09-11T03:50:35.661Z,19.18
2022-09-11T03:53:22.154Z,19.11
2022-09-11T03:56:11.149Z,19.09
2022-09-11T03:58:54.286Z,19.08
2022-09-11T04:01:42.263Z,19.18
2022-09-11T04:04:29.171Z,19.15
2022-09-11T04:07:09.637Z,19.10
2022-09-11T04:09:56.159Z,19.13
2022-09-11T04:12:36.543Z,19.07
2022-09-11T04:15:24.186Z,19.02
2022-09-11T04:18:15.127Z,19.08
2022-09-11T04:21:02.149Z,19.10
2022-09-11T04:23:56.129Z,19.19
2022-09-11T04:26:43.186Z,19.19
2022-09-11T04:29:40.151Z,19.25
2022-09-11T04:32:20.492Z,19.33
2022-09-11T04:35:08.127Z,19.46
2022-09-11T04:38:03.129Z,19.52
2022-09-11T04:40:52.124Z,19.92
2022-09-11T04:43:34.307Z,20.58
2022-09-11T04:46:29.125Z,21.30
2022-09-11T04:49:12.704Z,21.57
2022-09-11T04:52:00.125Z,21.71
2022-09-11T04:54:41.535Z,21.99
2022-09-11T04:57:30.115Z,22.05
2022-09-11T05:00:11.286Z,21.69
2022-09-11T05:02:58.126Z,21.76
2022-09-11T05:05:39.118Z,21.94
2022-09-11T05:08:26.099Z,22.05
2022-09-11T05:11:18.086Z,22.44
2022-09-11T05:14:07.078Z,22.82
2022-09-11T05:16:55.101Z,22.21
2022-09-11T05:19:37.177Z,22.40
2022-09-11T05:22:24.079Z,23.01
2022-09-11T05:25:19.105Z,23.86
2022-09-11T05:27:59.458Z,23.67
2022-09-11T05:30:46.085Z,23.75
2022-09-11T05:33:35.082Z,24.20
2022-09-11T05:36:16.194Z,24.31
2022-09-11T05:39:03.067Z,24.49
2022-09-11T05:41:44.183Z,24.98
2022-09-11T05:44:31.106Z,25.63
2022-09-11T05:47:14.332Z,26.15
2022-09-11T05:50:04.084Z,26.99
2022-09-11T05:52:44.166Z,27.70
2022-09-11T05:55:31.033Z,27.22
2022-09-11T05:58:12.165Z,25.82
2022-09-11T06:00:59.096Z,26.07
2022-09-11T06:03:42.285Z,27.61
2022-09-11T06:06:31.061Z,29.35
2022-09-11T06:09:13.193Z,28.13
2022-09-11T06:12:00.025Z,28.13
2022-09-11T06:14:43.257Z,27.72
2022-09-11T06:17:31.020Z,26.85
2022-09-11T06:20:13.144Z,27.59
2022-09-11T06:23:08.592Z,27.13
2022-09-11T06:25:56.158Z,26.60
2022-09-11T06:28:38.032Z,27.51
2022-09-11T06:31:21.123Z,27.74
2022-09-11T06:34:09.021Z,27.90
2022-09-11T06:36:56.031Z,27.17
2022-09-11T06:39:37.161Z,27.12
2022-09-11T06:42:30.012Z,26.29
2022-09-11T06:45:10.234Z,28.36
2022-09-11T06:47:56.973Z,29.67
2022-09-11T06:50:40.909Z,31.21
2022-09-11T06:53:27.991Z,33.42
2022-09-11T06:56:14.144Z,33.46
2022-09-11T06:59:01.036Z,33.05
2022-09-11T07:01:48.083Z,33.67
2022-09-11T07:04:29.327Z,33.93
2022-09-11T07:07:15.974Z,33.92
2022-09-11T07:10:03.964Z,34.35
2022-09-11T07:12:50.978Z,33.87
2022-09-11T07:15:38.977Z,34.97
2022-09-11T07:18:19.109Z,34.69
2022-09-11T07:21:06.989Z,36.59
2022-09-11T07:24:05.978Z,34.43
2022-09-11T07:26:48.389Z,34.10
2022-09-11T07:29:42.944Z,35.05
2022-09-11T07:32:23.337Z,34.91
2022-09-11T07:35:09.986Z,35.72
2022-09-11T07:37:57.038Z,34.72
2022-09-11T07:40:39.970Z,33.29
2022-09-11T07:43:27.949Z,34.15
2022-09-11T07:46:14.959Z,34.77
2022-09-11T07:48:55.948Z,34.83
2022-09-11T07:51:43.943Z,34.44
2022-09-11T07:54:37.917Z,35.51
2022-09-11T07:57:21.990Z,34.99
2022-09-11T08:00:08.921Z,36.08
2022-09-11T08:02:56.856Z,35.36
2022-09-11T08:05:47.943Z,34.88
2022-09-11T08:08:29.597Z,35.42
2022-09-11T08:11:18.897Z,34.12
2022-09-11T08:14:07.926Z,35.16
2022-09-11T08:16:48.530Z,34.98
2022-09-11T08:19:36.907Z,35.88
2022-09-11T08:22:18.306Z,36.30
2022-09-11T08:25:04.916Z,35.41
2022-09-11T08:27:53.187Z,35.63
2022-09-11T08:30:33.885Z,36.85
2022-09-11T08:33:15.278Z,37.30
2022-09-11T08:36:01.904Z,36.01
2022-09-11T08:38:45.469Z,37.29
2022-09-11T08:41:36.913Z,37.07
2022-09-11T08:44:27.890Z,36.44
2022-09-11T08:47:25.003Z,37.79
2022-09-11T08:50:15.909Z,41.85
2022-09-11T08:52:56.975Z,40.66
2022-09-11T08:55:50.884Z,40.85
2022-09-11T08:58:53.001Z,39.43
2022-09-11T09:01:53.911Z,39.40
2022-09-11T09:05:00.468Z,39.76
2022-09-11T09:08:15.890Z,39.37
2022-09-11T09:11:28.736Z,40.03
2022-09-11T09:14:35.879Z,42.26
2022-09-11T09:17:40.859Z,44.27
2022-09-11T09:20:31.702Z,44.28
2022-09-11T09:23:32.874Z,40.31
2022-09-11T09:26:32.424Z,43.73
2022-09-11T09:29:25.036Z,42.79
2022-09-11T09:32:28.885Z,40.12
2022-09-11T09:35:21.912Z,42.29
2022-09-11T09:38:09.851Z,41.12
2022-09-11T09:41:12.056Z,41.81
2022-09-11T09:44:19.720Z,40.76
2022-09-11T09:47:00.330Z,40.91
2022-09-11T09:49:49.837Z,40.18
2022-09-11T09:52:42.851Z,40.56
2022-09-11T09:55:27.934Z,41.71
2022-09-11T09:58:14.806Z,41.67
2022-09-11T10:00:54.942Z,40.80
2022-09-11T10:03:41.819Z,42.95
2022-09-11T10:06:28.828Z,42.35
2022-09-11T10:09:29.656Z,44.03
2022-09-11T10:12:25.850Z,45.15
2022-09-11T10:15:13.826Z,45.55
2022-09-11T10:18:00.808Z,43.15
2022-09-11T10:20:41.316Z,45.41
2022-09-11T10:23:39.789Z,46.12
2022-09-11T10:26:37.808Z,46.57
2022-09-11T10:29:22.825Z,46.94
2022-09-11T10:32:12.797Z,42.77
2022-09-11T10:34:53.753Z,42.52
2022-09-11T10:37:45.811Z,42.92
2022-09-11T10:40:26.254Z,41.11
2022-09-11T10:43:12.800Z,42.46
2022-09-11T10:46:10.845Z,40.81
2022-09-11T10:49:24.824Z,40.59
2022-09-11T10:52:08.124Z,40.07
2022-09-11T10:55:14.749Z,41.79
2022-09-11T10:58:05.862Z,39.76
2022-09-11T11:00:52.775Z,40.23
2022-09-11T11:03:33.374Z,39.41
2022-09-11T11:07:10.762Z,40.05
2022-09-11T11:10:25.774Z,41.38
2022-09-11T11:13:23.877Z,41.32
2022-09-11T11:16:25.776Z,37.36
2022-09-11T11:19:24.044Z,34.97
2022-09-11T11:22:24.755Z,33.05
2022-09-11T11:25:14.879Z,32.78
2022-09-11T11:28:19.744Z,31.43
2022-09-11T11:31:23.809Z,31.30
2022-09-11T11:34:14.395Z,30.62
2022-09-11T11:37:11.777Z,29.76
2022-09-11T11:40:16.908Z,29.67
2022-09-11T11:43:10.745Z,29.61
2022-09-11T11:46:03.864Z,29.39
2022-09-11T11:48:53.314Z,29.95
2022-09-11T11:51:41.744Z,29.86
2022-09-11T11:55:18.117Z,29.78
2022-09-11T11:58:17.780Z,29.64
2022-09-11T12:01:01.950Z,29.93
2022-09-11T12:03:51.785Z,29.61
2022-09-11T12:06:38.714Z,29.70
2022-09-11T12:09:22.889Z,29.82
2022-09-11T12:12:12.705Z,29.52
2022-09-11T12:15:09.698Z,29.74
2022-09-11T12:18:13.708Z,29.74
2022-09-11T12:20:53.812Z,30.17
2022-09-11T12:24:01.702Z,29.79
2022-09-11T12:26:55.676Z,29.83
2022-09-11T12:30:00.688Z,29.77
2022-09-11T12:32:48.770Z,29.48
2022-09-11T12:35:47.726Z,29.41
2022-09-11T12:38:41.736Z,29.25
2022-09-11T12:41:27.076Z,29.59
2022-09-11T12:44:14.666Z,29.96
2022-09-11T12:47:01.708Z,29.91
2022-09-11T12:49:42.149Z,29.86
2022-09-11T12:52:46.701Z,29.84
2022-09-11T12:55:51.698Z,29.74
2022-09-11T12:58:43.727Z,29.34
2022-09-11T13:01:30.884Z,29.06
2022-09-11T13:04:17.632Z,29.26
2022-09-11T13:07:10.648Z,29.13
2022-09-11T13:09:58.684Z,28.83
2022-09-11T13:12:41.820Z,28.34
2022-09-11T13:15:47.805Z,28.23
2022-09-11T13:18:38.651Z,28.34
2022-09-11T13:21:23.130Z,28.28
2022-09-11T13:24:13.629Z,28.40
2022-09-11T13:27:05.861Z,28.22
2022-09-11T13:29:47.649Z,28.14
2022-09-11T13:32:28.183Z,28.13
2022-09-11T13:35:23.639Z,27.88
2022-09-11T13:38:10.171Z,28.10
2022-09-11T13:41:01.611Z,27.99
2022-09-11T13:43:56.314Z,27.99
2022-09-11T13:46:50.708Z,28.08
2022-09-11T13:49:46.627Z,28.04
2022-09-11T13:52:30.406Z,28.05
2022-09-11T13:55:27.614Z,28.14
2022-09-11T13:58:37.638Z,28.29
2022-09-11T14:01:26.620Z,28.32
2022-09-11T14:04:17.591Z,28.44
2022-09-11T14:07:04.613Z,28.38
2022-09-11T14:10:05.838Z,28.00
2022-09-11T14:13:03.622Z,27.95
2022-09-11T14:16:02.783Z,28.07
2022-09-11T14:18:53.755Z,27.81
2022-09-11T14:21:45.667Z,27.95
2022-09-11T14:24:43.038Z,27.93
2022-09-11T14:27:41.644Z,27.92
2022-09-11T14:30:46.776Z,27.70
2022-09-11T14:33:33.708Z,27.59
2022-09-11T14:36:30.596Z,27.47
2022-09-11T14:39:26.269Z,27.36
2022-09-11T14:42:13.590Z,27.32
2022-09-11T14:44:54.075Z,27.25
2022-09-11T14:47:43.678Z,27.29
2022-09-11T14:50:31.564Z,27.17
2022-09-11T14:53:18.567Z,27.21
2022-09-11T14:56:00.670Z,27.27
2022-09-11T14:58:47.665Z,27.24
2022-09-11T15:01:35.705Z,27.00
2022-09-11T15:04:22.539Z,27.00
2022-09-11T15:07:03.090Z,26.89
2022-09-11T15:09:49.533Z,26.81
2022-09-11T15:27:56.983Z,25.94
2022-09-11T15:30:44.987Z,25.96
2022-09-11T15:33:25.094Z,26.02
2022-09-11T15:36:11.985Z,26.11
2022-09-11T15:39:03.662Z,26.14
2022-09-11T15:41:50.962Z,26.18
2022-09-11T15:44:33.225Z,26.02
2022-09-11T15:47:19.930Z,25.94
2022-09-11T15:50:06.974Z,25.96
2022-09-11T15:52:47.409Z,25.95
2022-09-11T15:55:33.935Z,25.93
2022-09-11T15:58:20.943Z,25.76
2022-09-11T16:01:08.964Z,25.68
2022-09-11T16:04:06.959Z,25.59
2022-09-11T16:06:50.288Z,25.62
2022-09-11T16:09:37.960Z,25.53
2022-09-11T16:12:18.038Z,25.46
2022-09-11T16:15:05.938Z,25.44
2022-09-11T16:17:52.939Z,25.29
2022-09-11T16:20:33.396Z,25.18
2022-09-11T16:23:19.910Z,25.12
2022-09-11T16:26:19.902Z,25.04
2022-09-11T16:29:01.019Z,24.93
2022-09-11T16:31:47.933Z,24.74
2022-09-11T16:34:34.919Z,24.66
2022-09-11T16:37:21.939Z,24.59
2022-09-11T16:40:02.920Z,24.51
2022-09-11T16:42:49.918Z,24.42
2022-09-11T16:45:36.907Z,24.34
2022-09-11T16:48:17.334Z,24.27
2022-09-11T16:51:04.883Z,24.20
2022-09-11T16:53:45.380Z,24.19
2022-09-11T16:56:32.903Z,24.11
2022-09-11T16:59:19.865Z,24.11
2022-09-11T17:02:07.953Z,24.13
2022-09-11T17:04:54.885Z,24.10
2022-09-11T17:07:42.878Z,24.09
2022-09-11T17:10:29.885Z,24.03
2022-09-11T17:13:10.957Z,23.97
2022-09-11T17:15:57.911Z,23.89
2022-09-11T17:18:39.373Z,23.85
2022-09-11T17:21:25.820Z,23.73
2022-09-11T17:24:07.508Z,23.73
2022-09-11T17:26:54.880Z,23.68
2022-09-11T17:29:35.410Z,23.68
2022-09-11T17:32:30.076Z,23.71
2022-09-11T17:35:11.981Z,23.64
2022-09-11T17:37:58.831Z,23.59
2022-09-11T17:40:39.275Z,23.60
2022-09-11T17:43:25.889Z,23.49
2022-09-11T17:46:18.397Z,23.46
2022-09-11T17:49:04.796Z,23.40
2022-09-11T17:51:45.210Z,23.37
2022-09-11T17:54:31.803Z,23.41
2022-09-11T17:57:12.534Z,23.31
2022-09-11T18:00:02.862Z,23.29
2022-09-11T18:02:52.843Z,23.21
2022-09-11T18:05:34.098Z,23.21
2022-09-11T18:08:20.834Z,23.18
2022-09-11T18:11:03.904Z,23.19
2022-09-11T18:13:50.830Z,23.16
2022-09-11T18:16:30.943Z,23.19
2022-09-11T18:19:18.806Z,23.20
2022-09-11T18:21:59.867Z,23.16
2022-09-11T18:24:40.026Z,23.09
2022-09-11T18:27:20.273Z,23.05
2022-09-11T18:30:06.754Z,23.08
2022-09-11T18:35:36.806Z,22.91
2022-09-11T18:38:17.199Z,22.86
2022-09-11T18:41:10.750Z,22.74
2022-09-11T18:43:55.550Z,22.71
2022-09-11T18:46:43.797Z,22.63
2022-09-11T18:49:30.766Z,22.47
2022-09-11T18:52:10.926Z,22.50
2022-09-11T18:54:57.785Z,22.45
2022-09-11T18:57:41.717Z,22.44
2022-09-11T19:00:29.847Z,22.30
2022-09-11T19:03:20.768Z,22.22
2022-09-11T19:06:12.778Z,22.24
2022-09-11T19:08:54.919Z,22.15
2022-09-11T19:11:41.770Z,22.15
2022-09-11T19:14:28.776Z,22.13
2022-09-11T19:17:09.161Z,22.05
2022-09-11T19:19:55.756Z,21.91
2022-09-11T19:22:36.451Z,21.89
2022-09-11T19:25:22.754Z,21.78
2022-09-11T19:28:18.745Z,21.72
2022-09-11T19:31:00.741Z,21.72
2022-09-11T19:33:49.737Z,21.58
2022-09-11T19:36:32.864Z,21.60
2022-09-11T19:39:19.710Z,21.54
2022-09-11T19:42:00.385Z,21.42
2022-09-11T19:44:47.723Z,21.41
2022-09-11T19:47:34.723Z,21.28
2022-09-11T19:50:17.482Z,21.18
2022-09-11T19:53:04.680Z,21.15
2022-09-11T19:55:51.713Z,21.07
2022-09-11T19:58:38.706Z,21.00
2022-09-11T20:01:28.678Z,20.88
2022-09-11T20:04:17.721Z,20.75
2022-09-11T20:06:57.820Z,20.80
2022-09-11T20:09:45.674Z,20.83
2022-09-11T20:12:32.709Z,20.76
2022-09-11T20:15:13.105Z,20.87
2022-09-11T20:18:00.424Z,20.87
2022-09-11T20:20:49.675Z,20.73
2022-09-11T20:23:29.880Z,20.62
2022-09-11T20:26:31.661Z,20.58
2022-09-11T20:29:21.666Z,20.58
2022-09-11T20:32:08.645Z,20.54
2022-09-11T20:34:55.656Z,20.55
2022-09-11T20:37:35.826Z,20.55
2022-09-11T20:40:22.689Z,20.52
2022-09-11T20:43:09.665Z,20.51
2022-09-11T20:45:57.654Z,20.53
2022-09-11T20:48:37.811Z,20.46
2022-09-11T20:51:24.642Z,20.41
2022-09-11T20:54:11.618Z,20.34
2022-09-11T20:56:52.026Z,20.26
2022-09-11T20:59:38.627Z,20.27
2022-09-11T21:02:19.163Z,20.30
2022-09-11T21:05:05.624Z,20.23
2022-09-11T21:07:46.032Z,20.18
2022-09-11T21:10:25.605Z,20.16
2022-09-11T21:13:05.784Z,20.18
2022-09-11T21:15:53.656Z,20.20
2022-09-11T21:18:40.605Z,20.19
2022-09-11T21:21:28.615Z,20.12
2022-09-11T21:24:17.592Z,20.09
2022-09-11T21:27:04.638Z,20.08
2022-09-11T21:29:44.738Z,20.00
2022-09-11T21:32:31.567Z,20.02
2022-09-11T21:35:19.624Z,19.96
2022-09-11T21:37:59.990Z,19.91
2022-09-11T21:40:46.606Z,19.85
2022-09-11T21:43:34.645Z,19.79
2022-09-11T21:46:23.657Z,19.93
2022-09-11T21:49:10.616Z,19.77
2022-09-11T21:51:50.740Z,19.79
2022-09-11T21:54:37.559Z,19.77
2022-09-11T21:57:24.571Z,19.73
2022-09-11T22:00:11.855Z,19.76
2022-09-11T22:02:58.556Z,19.71
2022-09-11T22:05:43.364Z,19.68
2022-09-11T22:08:32.584Z,19.63
2022-09-11T22:11:14.297Z,19.61
2022-09-11T22:14:00.556Z,19.55
2022-09-11T22:16:40.962Z,19.56
2022-09-11T22:19:27.587Z,19.53
2022-09-11T22:22:15.019Z,19.56
2022-09-11T22:24:54.541Z,19.49
2022-09-11T22:27:50.565Z,19.53
2022-09-11T22:30:31.350Z,19.52
2022-09-11T22:33:18.532Z,19.57
2022-09-11T22:36:05.546Z,19.57
2022-09-11T22:38:52.580Z,19.65
2022-09-11T22:41:39.541Z,19.65
2022-09-11T22:44:19.990Z,19.74
2022-09-11T22:47:06.506Z,19.81
2022-09-11T22:49:53.502Z,19.86
2022-09-11T22:52:41.289Z,19.81
2022-09-11T22:55:21.557Z,19.83
2022-09-11T22:58:08.522Z,19.85
2022-09-11T23:00:56.563Z,19.83
2022-09-11T23:03:43.514Z,19.83
2022-09-11T23:06:42.370Z,19.81
2022-09-11T23:09:29.489Z,19.84
2022-09-11T23:12:10.676Z,19.82
2022-09-11T23:14:57.471Z,19.83
2022-09-11T23:17:44.469Z,19.77
2022-09-11T23:20:24.917Z,19.74
2022-09-11T23:23:11.517Z,19.72
2022-09-11T23:25:52.054Z,19.73
2022-09-11T23:28:38.489Z,19.75
2022-09-11T23:31:35.532Z,19.65
2022-09-11T23:34:15.662Z,19.70
2022-09-11T23:37:02.474Z,19.72
2022-09-11T23:39:42.688Z,19.69
2022-09-11T23:42:30.445Z,19.64
2022-09-11T23:45:12.758Z,19.61
2022-09-11T23:47:59.477Z,19.61
2022-09-11T23:50:39.683Z,19.55
2022-09-11T23:53:26.455Z,19.57
2022-09-11T23:56:06.763Z,19.57
2022-09-11T23:58:53.436Z,19.46
